createdAt,value
2019-03-15T00:00:18.296Z,5.20
2019-03-15T00:02:47.283Z,5.20
2019-03-15T00:05:17.400Z,5.20
2019-03-15T00:07:47.779Z,5.20
2019-03-15T00:10:19.694Z,5.20
2019-03-15T00:12:50.199Z,5.20
2019-03-15T00:15:18.776Z,5.10
2019-03-15T00:17:47.534Z,5.10
2019-03-15T00:20:17.721Z,5.10
2019-03-15T00:22:50.238Z,5.10
2019-03-15T00:25:21.318Z,5.10
2019-03-15T00:27:55.720Z,5.10
2019-03-15T00:30:25.816Z,5.10
2019-03-15T00:32:54.725Z,5.00
2019-03-15T00:35:29.438Z,5.00
2019-03-15T00:38:06.699Z,5.00
2019-03-15T00:40:36.030Z,5.00
2019-03-15T00:43:06.788Z,5.00
2019-03-15T00:45:36.834Z,5.10
2019-03-15T00:48:06.654Z,5.10
2019-03-15T00:50:39.887Z,5.20
2019-03-15T00:53:12.020Z,5.20
2019-03-15T00:55:43.203Z,5.20
2019-03-15T00:58:13.320Z,5.20
2019-03-15T01:00:45.864Z,5.20
2019-03-15T01:03:25.958Z,5.20
2019-03-15T01:05:59.085Z,5.20
2019-03-15T01:08:29.816Z,5.20
2019-03-15T01:11:00.305Z,5.20
2019-03-15T01:13:33.978Z,5.20
2019-03-15T01:16:04.267Z,5.20
2019-03-15T01:18:42.815Z,5.30
2019-03-15T01:21:14.431Z,5.30
2019-03-15T01:23:45.137Z,5.30
2019-03-15T01:26:14.029Z,5.30
2019-03-15T01:28:47.907Z,5.30
2019-03-15T01:31:24.634Z,5.30
2019-03-15T01:34:04.394Z,5.30
2019-03-15T01:36:33.958Z,5.40
2019-03-15T01:39:02.544Z,5.40
2019-03-15T01:41:32.833Z,5.40
2019-03-15T01:44:03.871Z,5.40
2019-03-15T01:46:41.186Z,5.40
2019-03-15T01:49:10.618Z,5.40
2019-03-15T01:51:44.190Z,5.50
2019-03-15T01:54:13.689Z,5.50
2019-03-15T01:56:48.546Z,5.40
2019-03-15T02:00:27.256Z,5.40
2019-03-15T02:03:02.250Z,5.40
2019-03-15T02:05:34.563Z,5.40
2019-03-15T02:08:03.250Z,5.40
2019-03-15T02:10:43.352Z,5.40
2019-03-15T02:13:17.264Z,5.40
2019-03-15T02:15:50.077Z,5.40
2019-03-15T02:18:20.186Z,5.40
2019-03-15T02:20:48.853Z,5.50
2019-03-15T02:23:18.955Z,5.50
2019-03-15T02:25:53.432Z,5.50
2019-03-15T02:28:22.098Z,5.50
2019-03-15T02:31:08.272Z,5.50
2019-03-15T02:33:43.053Z,5.60
2019-03-15T02:36:27.110Z,5.60
2019-03-15T02:38:56.956Z,5.60
2019-03-15T02:41:27.466Z,5.60
2019-03-15T02:43:59.225Z,5.60
2019-03-15T02:46:28.730Z,5.70
2019-03-15T02:49:16.106Z,5.60
2019-03-15T02:51:49.950Z,5.60
2019-03-15T02:54:18.759Z,5.60
2019-03-15T02:56:50.674Z,5.60
2019-03-15T03:00:10.852Z,5.60
2019-03-15T03:02:40.457Z,5.70
2019-03-15T03:05:19.257Z,5.70
2019-03-15T03:07:49.186Z,5.70
2019-03-15T03:10:21.661Z,5.70
2019-03-15T03:12:56.525Z,5.70
2019-03-15T03:15:27.631Z,5.70
2019-03-15T03:17:56.285Z,5.70
2019-03-15T03:20:25.593Z,5.70
2019-03-15T03:23:04.034Z,5.80
2019-03-15T03:25:40.468Z,5.80
2019-03-15T03:28:15.632Z,5.80
2019-03-15T03:30:47.682Z,5.80
2019-03-15T03:33:17.193Z,5.80
2019-03-15T03:35:56.154Z,5.80
2019-03-15T03:38:24.729Z,5.80
2019-03-15T03:40:56.692Z,5.80
2019-03-15T03:43:31.781Z,5.80
2019-03-15T03:46:09.833Z,5.90
2019-03-15T03:48:49.619Z,5.90
2019-03-15T03:51:20.173Z,5.90
2019-03-15T03:53:52.241Z,5.80
2019-03-15T03:56:23.332Z,5.80
2019-03-15T03:58:54.587Z,5.80
2019-03-15T04:01:23.293Z,5.80
2019-03-15T04:03:53.402Z,5.80
2019-03-15T04:06:32.023Z,5.70
2019-03-15T04:09:09.535Z,5.80
2019-03-15T04:11:54.644Z,5.80
2019-03-15T04:14:16.869Z,5.80
2019-03-15T04:16:47.062Z,5.80
2019-03-15T04:19:45.630Z,5.80
2019-03-15T04:22:33.246Z,5.80
2019-03-15T04:25:08.307Z,5.90
2019-03-15T04:27:42.843Z,5.80
2019-03-15T04:30:18.707Z,5.90
2019-03-15T04:32:59.562Z,5.90
2019-03-15T04:35:28.670Z,5.90
2019-03-15T04:38:06.758Z,5.90
2019-03-15T04:40:44.118Z,5.90
2019-03-15T04:43:14.284Z,5.90
2019-03-15T04:45:45.432Z,5.90
2019-03-15T04:48:14.401Z,5.90
2019-03-15T04:50:46.722Z,5.90
2019-03-15T04:53:19.511Z,5.80
2019-03-15T04:55:48.165Z,5.90
2019-03-15T04:58:19.098Z,5.90
2019-03-15T05:00:56.780Z,5.90
2019-03-15T05:03:29.254Z,5.90
2019-03-15T05:06:03.677Z,5.90
2019-03-15T05:08:37.732Z,5.90
2019-03-15T05:11:17.270Z,5.80
2019-03-15T05:13:58.983Z,5.80
2019-03-15T05:16:30.478Z,5.80
2019-03-15T05:19:20.261Z,5.80
2019-03-15T05:21:51.439Z,5.70
2019-03-15T05:24:20.018Z,5.70
2019-03-15T05:26:48.618Z,5.70
2019-03-15T05:29:17.184Z,5.60
2019-03-15T05:31:47.647Z,5.70
2019-03-15T05:34:19.387Z,5.60
2019-03-15T05:36:50.192Z,5.70
2019-03-15T05:39:19.099Z,5.70
2019-03-15T05:41:47.654Z,5.70
2019-03-15T05:44:20.186Z,5.70
2019-03-15T05:46:48.012Z,5.80
2019-03-15T05:49:17.549Z,5.70
2019-03-15T05:51:46.229Z,5.70
2019-03-15T05:54:14.822Z,5.70
2019-03-15T05:56:45.807Z,5.70
2019-03-15T05:59:16.695Z,5.80
2019-03-15T06:01:47.132Z,5.80
2019-03-15T06:04:18.769Z,5.80
2019-03-15T06:06:49.284Z,5.90
2019-03-15T06:09:31.828Z,5.90
2019-03-15T06:12:00.464Z,5.90
2019-03-15T06:14:29.044Z,5.90
2019-03-15T06:16:59.163Z,5.90
2019-03-15T06:19:28.690Z,5.90
2019-03-15T06:21:57.275Z,5.90
2019-03-15T06:24:26.087Z,5.90
2019-03-15T06:26:57.089Z,5.90
2019-03-15T06:29:25.671Z,5.90
2019-03-15T06:31:54.263Z,5.90
2019-03-15T06:34:24.856Z,5.90
2019-03-15T06:36:54.382Z,6.00
2019-03-15T06:39:22.968Z,6.00
2019-03-15T06:41:51.585Z,6.00
2019-03-15T06:44:20.341Z,6.00
2019-03-15T06:46:50.197Z,6.00
2019-03-15T06:49:26.121Z,6.00
2019-03-15T06:51:55.739Z,6.10
2019-03-15T06:54:25.304Z,6.00
2019-03-15T06:56:54.797Z,6.00
2019-03-15T06:59:31.737Z,6.10
2019-03-15T07:02:00.358Z,6.10
2019-03-15T07:04:31.724Z,6.00
2019-03-15T07:07:07.175Z,6.10
2019-03-15T07:09:45.113Z,6.10
2019-03-15T07:12:15.180Z,6.20
2019-03-15T07:14:43.744Z,6.30
2019-03-15T07:17:13.275Z,6.30
2019-03-15T07:19:41.914Z,6.30
2019-03-15T07:22:13.505Z,6.30
2019-03-15T07:24:43.776Z,6.40
2019-03-15T07:27:14.348Z,6.40
2019-03-15T07:29:51.878Z,6.40
2019-03-15T07:32:20.453Z,6.50
2019-03-15T07:34:49.055Z,6.50
2019-03-15T07:37:17.640Z,6.60
2019-03-15T07:39:46.189Z,6.60
2019-03-15T07:42:14.800Z,6.70
2019-03-15T07:44:44.042Z,6.80
2019-03-15T07:47:14.236Z,6.80
2019-03-15T07:49:42.811Z,6.90
2019-03-15T07:52:11.379Z,6.90
2019-03-15T07:54:40.258Z,6.90
2019-03-15T07:57:09.038Z,7.00
2019-03-15T07:59:37.629Z,7.10
2019-03-15T08:02:06.185Z,7.10
2019-03-15T08:04:36.087Z,7.00
2019-03-15T08:07:04.774Z,6.90
2019-03-15T08:09:33.432Z,7.00
2019-03-15T08:12:02.080Z,6.80
2019-03-15T08:14:30.676Z,6.90
2019-03-15T08:16:59.297Z,6.90
2019-03-15T08:19:27.860Z,7.00
2019-03-15T08:21:56.772Z,7.00
2019-03-15T08:24:25.504Z,7.10
2019-03-15T08:26:55.028Z,7.10
2019-03-15T08:29:23.605Z,7.10
2019-03-15T08:31:52.244Z,7.20
2019-03-15T08:34:20.834Z,7.30
2019-03-15T08:36:51.119Z,7.40
2019-03-15T08:39:21.703Z,7.40
2019-03-15T08:41:50.327Z,7.40
2019-03-15T08:44:18.913Z,7.40
2019-03-15T08:46:47.532Z,7.40
2019-03-15T08:49:18.052Z,7.40
2019-03-15T08:51:48.664Z,7.40
2019-03-15T08:54:17.258Z,7.40
2019-03-15T08:56:45.836Z,7.40
2019-03-15T08:59:14.502Z,7.50
2019-03-15T09:01:43.119Z,7.60
2019-03-15T09:04:11.715Z,7.70
2019-03-15T09:06:41.169Z,7.90
2019-03-15T09:09:09.792Z,8.10
2019-03-15T09:11:38.365Z,8.30
2019-03-15T09:14:06.950Z,8.30
2019-03-15T09:16:35.604Z,8.30
2019-03-15T09:19:06.638Z,8.30
2019-03-15T09:21:35.309Z,8.30
2019-03-15T09:24:03.942Z,8.20
2019-03-15T09:26:32.509Z,8.20
2019-03-15T09:29:01.522Z,8.10
2019-03-15T09:31:42.307Z,8.00
2019-03-15T09:34:00.360Z,7.90
2019-03-15T09:36:29.016Z,7.80
2019-03-15T09:38:59.286Z,7.70
2019-03-15T09:41:34.236Z,7.70
2019-03-15T09:43:58.088Z,7.70
2019-03-15T09:46:26.682Z,7.80
2019-03-15T09:48:55.312Z,7.90
2019-03-15T09:51:23.879Z,7.90
2019-03-15T09:53:52.442Z,7.90
2019-03-15T09:56:21.119Z,7.90
2019-03-15T09:58:51.991Z,8.00
2019-03-15T10:01:34.215Z,8.10
2019-03-15T10:03:51.684Z,8.30
2019-03-15T10:06:20.257Z,8.30
2019-03-15T10:08:48.981Z,8.60
2019-03-15T10:11:17.562Z,8.40
2019-03-15T10:13:46.143Z,8.40
2019-03-15T10:16:14.819Z,8.40
2019-03-15T10:18:43.408Z,8.40
2019-03-15T10:21:12.010Z,8.30
2019-03-15T10:23:40.672Z,8.20
2019-03-15T10:26:09.282Z,8.10
2019-03-15T10:28:38.192Z,8.10
2019-03-15T10:31:06.840Z,8.00
2019-03-15T10:33:35.407Z,8.00
2019-03-15T10:36:04.191Z,8.00
2019-03-15T10:38:32.773Z,8.00
2019-03-15T10:41:01.544Z,8.10
2019-03-15T10:43:30.112Z,8.20
2019-03-15T10:45:58.686Z,8.10
2019-03-15T10:48:29.298Z,8.20
2019-03-15T10:50:58.329Z,8.60
2019-03-15T10:53:27.327Z,8.90
2019-03-15T10:56:00.532Z,9.00
2019-03-15T10:58:26.241Z,9.00
2019-03-15T11:00:55.341Z,9.10
2019-03-15T11:03:23.919Z,9.20
2019-03-15T11:05:52.588Z,9.40
2019-03-15T11:08:24.064Z,9.50
2019-03-15T11:10:51.764Z,9.50
2019-03-15T11:13:20.398Z,9.50
2019-03-15T11:15:51.255Z,9.30
2019-03-15T11:18:19.858Z,9.20
2019-03-15T11:20:48.921Z,9.00
2019-03-15T11:23:17.489Z,8.80
2019-03-15T11:25:46.045Z,8.80
2019-03-15T11:28:14.633Z,8.90
2019-03-15T11:30:43.249Z,9.10
2019-03-15T11:33:12.824Z,9.40
2019-03-15T11:35:41.408Z,9.70
2019-03-15T11:38:10.078Z,10.20
2019-03-15T11:40:38.636Z,10.60
2019-03-15T11:43:07.249Z,10.90
2019-03-15T11:45:35.897Z,10.90
2019-03-15T11:48:04.702Z,10.70
2019-03-15T11:50:33.517Z,10.60
2019-03-15T11:53:02.078Z,10.40
2019-03-15T11:55:30.753Z,10.30
2019-03-15T11:57:59.316Z,10.20
2019-03-15T12:00:27.975Z,10.10
2019-03-15T12:02:56.580Z,10.10
2019-03-15T12:05:25.154Z,10.00
2019-03-15T12:07:53.712Z,9.80
2019-03-15T12:10:23.962Z,9.80
2019-03-15T12:12:52.616Z,9.70
2019-03-15T12:15:21.166Z,9.70
2019-03-15T12:17:49.864Z,9.70
2019-03-15T12:20:18.442Z,9.70
2019-03-15T12:22:48.730Z,9.60
2019-03-15T12:25:17.347Z,9.50
2019-03-15T12:27:45.998Z,9.40
2019-03-15T12:30:15.703Z,9.30
2019-03-15T12:32:44.373Z,9.20
2019-03-15T12:35:16.374Z,9.20
2019-03-15T12:37:45.075Z,9.30
2019-03-15T12:40:17.601Z,9.30
2019-03-15T12:42:45.387Z,9.40
2019-03-15T12:45:15.628Z,9.60
2019-03-15T12:47:44.175Z,9.70
2019-03-15T12:50:16.371Z,9.90
2019-03-15T12:52:48.970Z,9.90
2019-03-15T12:55:15.744Z,10.00
2019-03-15T12:57:44.322Z,9.90
2019-03-15T13:00:15.343Z,10.00
2019-03-15T13:02:43.914Z,10.00
2019-03-15T13:05:12.611Z,9.90
2019-03-15T13:07:41.188Z,9.80
2019-03-15T13:10:18.125Z,9.70
2019-03-15T13:12:46.693Z,9.50
2019-03-15T13:15:16.749Z,9.40
2019-03-15T13:17:45.454Z,9.40
2019-03-15T13:20:15.388Z,9.60
2019-03-15T13:22:45.639Z,9.70
2019-03-15T13:25:14.962Z,9.80
2019-03-15T13:27:43.646Z,9.90
2019-03-15T13:30:13.548Z,9.80
2019-03-15T13:32:42.221Z,9.70
2019-03-15T13:35:11.755Z,9.70
2019-03-15T13:37:42.791Z,9.70
2019-03-15T13:40:12.394Z,9.70
2019-03-15T13:42:41.088Z,9.70
2019-03-15T13:45:12.871Z,9.60
2019-03-15T13:47:41.532Z,9.60
2019-03-15T13:50:15.326Z,9.60
2019-03-15T13:52:44.017Z,9.50
2019-03-15T13:55:13.765Z,9.30
2019-03-15T13:57:42.345Z,9.20
2019-03-15T14:00:19.025Z,9.20
2019-03-15T14:02:47.908Z,9.00
2019-03-15T14:05:16.526Z,8.80
2019-03-15T14:07:45.114Z,8.70
2019-03-15T14:10:14.927Z,8.60
2019-03-15T14:12:43.937Z,8.60
2019-03-15T14:15:20.012Z,8.70
2019-03-15T14:17:48.983Z,8.80
2019-03-15T14:20:17.614Z,8.80
2019-03-15T14:22:46.207Z,8.90
2019-03-15T14:25:20.052Z,8.90
2019-03-15T14:27:48.704Z,8.80
2019-03-15T14:30:17.301Z,8.80
2019-03-15T14:32:45.902Z,8.80
2019-03-15T14:35:15.618Z,8.80
2019-03-15T14:37:44.330Z,8.80
2019-03-15T14:40:13.520Z,8.80
2019-03-15T14:42:42.100Z,8.70
2019-03-15T14:45:14.841Z,8.70
2019-03-15T14:47:43.385Z,8.70
2019-03-15T14:50:16.261Z,8.70
2019-03-15T14:52:45.774Z,8.70
2019-03-15T14:55:16.499Z,8.80
2019-03-15T14:57:52.544Z,8.80
2019-03-15T15:00:20.502Z,8.90
2019-03-15T15:02:49.546Z,8.90
2019-03-15T15:05:18.235Z,8.90
2019-03-15T15:07:46.816Z,8.90
2019-03-15T15:10:16.680Z,8.90
2019-03-15T15:12:47.910Z,8.80
2019-03-15T15:15:20.376Z,8.80
2019-03-15T15:17:48.190Z,8.70
2019-03-15T15:20:18.468Z,8.70
2019-03-15T15:22:47.146Z,8.60
2019-03-15T15:25:17.640Z,8.50
2019-03-15T15:27:46.264Z,8.40
2019-03-15T15:30:17.944Z,8.40
2019-03-15T15:32:47.889Z,8.40
2019-03-15T15:35:17.471Z,8.40
2019-03-15T15:37:46.473Z,8.40
2019-03-15T15:40:18.607Z,8.40
2019-03-15T15:42:47.339Z,8.30
2019-03-15T15:45:15.980Z,8.30
2019-03-15T15:47:44.656Z,8.30
2019-03-15T15:50:16.447Z,8.20
2019-03-15T15:52:45.084Z,8.20
2019-03-15T15:55:15.785Z,8.20
2019-03-15T15:57:44.374Z,8.20
2019-03-15T16:00:17.239Z,8.20
2019-03-15T16:02:45.930Z,8.20
2019-03-15T16:05:14.867Z,8.20
2019-03-15T16:07:43.497Z,8.20
2019-03-15T16:10:18.159Z,8.10
2019-03-15T16:12:47.065Z,8.00
2019-03-15T16:15:19.581Z,7.90
2019-03-15T16:17:47.399Z,7.80
2019-03-15T16:20:16.049Z,7.80
2019-03-15T16:22:44.753Z,7.80
2019-03-15T16:25:13.855Z,7.80
2019-03-15T16:27:42.506Z,7.80
2019-03-15T16:30:15.991Z,7.80
2019-03-15T16:32:44.602Z,7.70
2019-03-15T16:35:14.476Z,7.70
2019-03-15T16:37:43.227Z,7.60
2019-03-15T16:40:13.154Z,7.60
2019-03-15T16:42:41.790Z,7.50
2019-03-15T16:45:15.151Z,7.50
2019-03-15T16:47:43.920Z,7.50
2019-03-15T16:50:13.244Z,7.40
2019-03-15T16:52:41.968Z,7.40
2019-03-15T16:55:12.448Z,7.30
2019-03-15T16:57:41.170Z,7.30
2019-03-15T17:00:14.985Z,7.20
2019-03-15T17:02:44.253Z,7.20
2019-03-15T17:05:14.668Z,7.20
2019-03-15T17:07:43.336Z,7.20
2019-03-15T17:10:16.937Z,7.10
2019-03-15T17:12:46.657Z,7.10
2019-03-15T17:15:23.339Z,7.00
2019-03-15T17:17:51.968Z,7.00
2019-03-15T17:20:22.623Z,6.90
2019-03-15T17:22:51.256Z,6.80
2019-03-15T17:25:20.818Z,6.80
2019-03-15T17:27:49.446Z,6.80
2019-03-15T17:30:18.350Z,6.50
2019-03-15T17:32:47.058Z,6.70
2019-03-15T17:35:18.503Z,6.70
2019-03-15T17:37:47.124Z,6.70
2019-03-15T17:40:20.533Z,6.70
2019-03-15T17:42:49.194Z,6.70
2019-03-15T17:45:17.932Z,6.80
2019-03-15T17:47:47.299Z,6.80
2019-03-15T17:50:18.135Z,6.80
2019-03-15T17:52:47.175Z,6.90
2019-03-15T17:55:17.373Z,6.90
2019-03-15T17:57:49.008Z,7.00
2019-03-15T18:00:30.888Z,7.10
2019-03-15T18:03:01.723Z,7.10
2019-03-15T18:05:30.357Z,7.10
2019-03-15T18:07:59.021Z,7.00
2019-03-15T18:10:27.743Z,6.90
2019-03-15T18:12:56.314Z,6.90
2019-03-15T18:15:24.993Z,6.80
2019-03-15T18:17:53.587Z,6.80
2019-03-15T18:20:23.208Z,6.70
2019-03-15T18:22:51.911Z,6.70
2019-03-15T18:25:20.547Z,6.70
2019-03-15T18:27:49.276Z,6.70
2019-03-15T18:30:18.263Z,6.70
2019-03-15T18:32:47.016Z,6.70
2019-03-15T18:35:15.772Z,6.70
2019-03-15T18:37:44.468Z,6.60
2019-03-15T18:40:15.655Z,6.60
2019-03-15T18:42:44.248Z,6.50
2019-03-15T18:45:14.094Z,6.50
2019-03-15T18:47:42.906Z,6.50
2019-03-15T18:50:20.394Z,6.50
2019-03-15T18:52:49.261Z,6.60
2019-03-15T18:55:17.934Z,6.70
2019-03-15T18:57:46.606Z,6.70
2019-03-15T19:00:20.179Z,6.70
2019-03-15T19:02:49.095Z,6.80
2019-03-15T19:05:17.791Z,6.80
2019-03-15T19:07:46.428Z,6.80
2019-03-15T19:10:15.959Z,6.80
2019-03-15T19:12:44.713Z,6.80
2019-03-15T19:15:15.711Z,6.80
2019-03-15T19:17:44.387Z,6.80
2019-03-15T19:20:14.398Z,6.80
2019-03-15T19:22:43.054Z,6.90
2019-03-15T19:25:12.291Z,6.90
2019-03-15T19:27:40.901Z,6.90
2019-03-15T19:30:22.073Z,7.00
2019-03-15T19:32:50.626Z,7.00
2019-03-15T19:35:19.223Z,6.90
2019-03-15T19:37:47.817Z,7.00
2019-03-15T19:40:17.455Z,7.00
2019-03-15T19:42:46.095Z,7.00
2019-03-15T19:45:17.864Z,7.00
2019-03-15T19:47:46.495Z,7.10
2019-03-15T19:50:17.091Z,7.10
2019-03-15T19:52:46.858Z,7.10
2019-03-15T19:55:16.829Z,7.00
2019-03-15T19:57:45.443Z,7.10
2019-03-15T20:00:15.605Z,7.10
2019-03-15T20:02:44.332Z,7.00
2019-03-15T20:05:15.045Z,7.00
2019-03-15T20:07:43.770Z,7.00
2019-03-15T20:10:16.741Z,7.00
2019-03-15T20:12:45.347Z,7.00
2019-03-15T20:15:17.295Z,7.00
2019-03-15T20:17:46.545Z,7.00
2019-03-15T20:20:19.426Z,7.00
2019-03-15T20:22:48.028Z,7.00
2019-03-15T20:25:19.044Z,7.00
2019-03-15T20:27:48.633Z,7.00
2019-03-15T20:30:26.218Z,7.00
2019-03-15T20:32:52.638Z,7.10
2019-03-15T20:35:21.262Z,7.10
2019-03-15T20:37:49.858Z,7.00
2019-03-15T20:40:18.468Z,7.00
2019-03-15T20:42:47.085Z,7.00
2019-03-15T20:45:20.309Z,7.00
2019-03-15T20:47:48.910Z,7.00
2019-03-15T20:50:17.522Z,6.90
2019-03-15T20:52:46.109Z,6.90
2019-03-15T20:55:15.077Z,6.90
2019-03-15T20:57:44.612Z,6.90
2019-03-15T21:00:20.024Z,6.90
2019-03-15T21:02:48.617Z,6.80
2019-03-15T21:05:17.189Z,6.80
2019-03-15T21:07:45.891Z,6.90
2019-03-15T21:10:15.794Z,6.90
2019-03-15T21:12:44.423Z,6.90
2019-03-15T21:15:14.185Z,6.90
2019-03-15T21:17:42.822Z,6.90
2019-03-15T21:20:16.359Z,6.90
2019-03-15T21:22:45.047Z,6.90
2019-03-15T21:25:16.700Z,6.90
2019-03-15T21:27:53.746Z,6.90
2019-03-15T21:30:19.982Z,6.90
2019-03-15T21:32:48.926Z,6.90
2019-03-15T21:35:17.499Z,7.00
2019-03-15T21:37:46.186Z,7.00
2019-03-15T21:40:16.875Z,7.00
2019-03-15T21:42:45.450Z,6.90
2019-03-15T21:45:14.423Z,6.90
2019-03-15T21:47:42.992Z,7.00
2019-03-15T21:50:15.829Z,7.00
2019-03-15T21:52:44.396Z,7.00
2019-03-15T21:55:13.210Z,7.00
2019-03-15T21:57:41.793Z,7.00
2019-03-15T22:00:16.547Z,7.00
2019-03-15T22:02:46.807Z,7.10
2019-03-15T22:05:16.400Z,7.10
2019-03-15T22:07:45.046Z,7.10
2019-03-15T22:10:15.784Z,7.10
2019-03-15T22:12:50.141Z,7.10
2019-03-15T22:15:21.136Z,7.10
2019-03-15T22:17:49.835Z,7.10
2019-03-15T22:20:19.551Z,7.10
2019-03-15T22:22:49.052Z,7.10
2019-03-15T22:25:18.065Z,7.00
2019-03-15T22:27:49.935Z,7.00
2019-03-15T22:30:17.846Z,7.10
2019-03-15T22:32:46.599Z,7.00
2019-03-15T22:35:15.626Z,7.00
2019-03-15T22:37:44.275Z,7.10
2019-03-15T22:40:13.733Z,7.10
2019-03-15T22:42:42.448Z,7.10
2019-03-15T22:45:12.050Z,7.00
2019-03-15T22:47:40.852Z,7.10
2019-03-15T22:50:11.171Z,7.10
2019-03-15T22:52:42.823Z,7.00
2019-03-15T22:55:11.747Z,7.00
2019-03-15T22:57:40.638Z,7.10
2019-03-15T23:00:12.495Z,7.10
2019-03-15T23:02:41.682Z,7.10
2019-03-15T23:05:10.584Z,7.10
2019-03-15T23:07:39.122Z,7.10
2019-03-15T23:10:10.245Z,7.10
2019-03-15T23:12:38.953Z,7.10
2019-03-15T23:15:09.789Z,7.10
2019-03-15T23:17:38.383Z,7.10
2019-03-15T23:20:09.104Z,6.90
2019-03-15T23:22:38.692Z,6.70
2019-03-15T23:25:08.216Z,6.50
2019-03-15T23:27:36.907Z,6.40
2019-03-15T23:30:13.996Z,6.30
2019-03-15T23:32:42.673Z,6.30
2019-03-15T23:35:13.321Z,6.30
2019-03-15T23:37:41.946Z,6.30
2019-03-15T23:40:17.691Z,6.20
2019-03-15T23:42:46.631Z,6.20
2019-03-15T23:45:15.200Z,6.20
2019-03-15T23:47:43.941Z,6.30
2019-03-15T23:50:15.646Z,6.20
2019-03-15T23:52:44.459Z,6.20
2019-03-15T23:55:13.286Z,6.10
2019-03-15T23:57:42.085Z,6.10
